Time;durP1;ratioP1;P1;durP2;ratioP2;P2;SDS_P1;SDS_P2;PMS_P1;PMS_P2;Temp;Humidity;BMP_temperature;BMP_pressure;BME280_temperature;BME280_humidity;BME280_pressure;Samples;Min_cycle;Max_cycle;Signal;HPM_P1;HPM_P2
2022/04/13 00:01:06;;;;;;;15.45;10.02;;;;;;;7.33;59.95;100704.03;4926009;29;20495;-72
2022/04/13 00:03:31;;;;;;;16.33;11.18;;;;;;;7.28;60.79;100707.50;4926184;29;20598;-72
2022/04/13 00:05:56;;;;;;;17.05;11.05;;;;;;;7.24;60.54;100707.47;4927136;29;20541;-72
2022/04/13 00:08:22;;;;;;;15.27;10.10;;;;;;;7.22;60.49;100710.94;4926199;29;20032;-72
2022/04/13 00:10:48;;;;;;;16.58;10.63;;;;;;;7.19;60.51;100701.28;4923768;29;20032;-72
2022/04/13 00:13:13;;;;;;;14.75;10.43;;;;;;;7.19;60.55;100705.66;4928096;29;20542;-72
2022/04/13 00:15:39;;;;;;;15.18;10.40;;;;;;;7.15;60.50;100706.50;4927398;29;20040;-72
2022/04/13 00:18:08;;;;;;;15.82;10.80;;;;;;;7.11;60.83;100705.59;4926908;29;20090;-72
2022/04/13 00:20:34;;;;;;;15.75;10.82;;;;;;;7.08;60.88;100705.56;4920955;29;20050;-72
2022/04/13 00:23:00;;;;;;;14.75;10.07;;;;;;;7.05;60.50;100700.28;4926726;29;20035;-72
2022/04/13 00:25:25;;;;;;;16.83;9.70;;;;;;;7.01;61.13;100703.72;4928385;29;20039;-72
2022/04/13 00:27:50;;;;;;;13.48;9.15;;;;;;;6.97;61.19;100704.56;4924810;29;20036;-72
2022/04/13 00:30:16;;;;;;;16.90;9.95;;;;;;;6.94;61.27;100704.50;4926703;29;20035;-72
2022/04/13 00:32:41;;;;;;;14.30;10.25;;;;;;;6.91;61.55;100694.84;4926239;29;20123;-72
2022/04/13 00:35:06;;;;;;;14.68;9.98;;;;;;;6.90;61.67;100702.72;4925022;29;20040;-72
2022/04/13 00:37:32;;;;;;;15.43;10.15;;;;;;;6.90;61.85;100693.09;4924775;29;20057;-72
2022/04/13 00:39:58;;;;;;;18.02;11.15;;;;;;;6.89;61.60;100693.06;4926715;29;20484;-72
2022/04/13 00:42:24;;;;;;;15.77;10.32;;;;;;;6.85;61.70;100692.19;4921710;29;20039;-72
2022/04/13 00:44:49;;;;;;;16.65;10.07;;;;;;;6.84;62.15;100684.28;4925657;29;20032;-72
2022/04/13 00:47:15;;;;;;;15.38;11.23;;;;;;;6.84;62.03;100684.28;4924515;29;20534;-72
2022/04/13 00:49:40;;;;;;;15.13;10.52;;;;;;;6.82;62.54;100683.41;4925186;29;20040;-72
2022/04/13 00:52:07;;;;;;;15.05;9.95;;;;;;;6.82;61.95;100680.78;4924710;29;20126;-72
2022/04/13 00:54:33;;;;;;;15.30;10.18;;;;;;;6.81;61.81;100690.38;4925766;29;20024;-72
2022/04/13 00:57:01;;;;;;;16.23;10.90;;;;;;;6.76;62.17;100678.97;4926430;29;20055;-72
2022/04/13 00:59:27;;;;;;;17.33;10.30;;;;;;;6.66;62.93;100688.47;4943724;23;20074;-73
2022/04/13 01:01:57;;;;;;;12.85;9.05;;;;;;;6.64;62.91;100682.31;4934462;29;20518;-73
2022/04/13 01:04:23;;;;;;;18.48;10.98;;;;;;;6.61;62.69;100682.28;4936327;29;20556;-73
2022/04/13 01:06:49;;;;;;;16.38;10.68;;;;;;;6.52;63.74;100693.53;4935898;29;20491;-73
2022/04/13 01:09:16;;;;;;;16.92;10.20;;;;;;;6.49;63.31;100700.47;4935933;29;20066;-73
2022/04/13 01:11:42;;;;;;;15.13;11.00;;;;;;;6.48;62.99;100701.34;4936002;29;20051;-73
2022/04/13 01:14:08;;;;;;;16.73;9.98;;;;;;;6.49;63.12;100695.22;4935519;29;20051;-73
2022/04/13 01:16:37;;;;;;;17.25;10.35;;;;;;;6.49;62.69;100696.09;4931207;29;20103;-73
2022/04/13 01:19:04;;;;;;;17.38;10.70;;;;;;;6.47;63.26;100710.94;4931990;29;20447;-73
2022/04/13 01:21:52;;;;;;;15.55;10.55;;;;;;;6.47;63.43;100699.56;4926984;29;20123;-73
2022/04/13 01:24:19;;;;;;;15.57;10.30;;;;;;;6.42;62.88;100694.28;4943293;29;20050;-73
2022/04/13 01:26:45;;;;;;;18.17;10.65;;;;;;;6.39;63.06;100686.34;4935900;29;20047;-73
2022/04/13 01:29:12;;;;;;;15.55;10.65;;;;;;;6.35;63.47;100692.44;4930404;29;20039;-73
2022/04/13 01:31:38;;;;;;;15.05;10.00;;;;;;;6.31;63.47;100699.38;4931120;29;20502;-73
2022/04/13 01:34:04;;;;;;;17.58;11.25;;;;;;;6.29;64.23;100705.47;4932822;29;20388;-73
2022/04/13 01:36:31;;;;;;;18.58;11.02;;;;;;;6.27;63.76;100701.94;4932134;29;20050;-73
2022/04/13 01:38:57;;;;;;;14.50;10.13;;;;;;;6.24;63.88;100702.75;4931132;29;20032;-73
2022/04/13 01:41:22;;;;;;;14.73;10.05;;;;;;;6.23;64.11;100703.59;4933983;29;20051;-73
2022/04/13 01:43:47;;;;;;;14.55;10.15;;;;;;;6.24;64.33;100701.88;4933541;29;20027;-73
2022/04/13 01:46:13;;;;;;;15.38;10.55;;;;;;;6.23;63.76;100700.09;4927488;29;20035;-73
2022/04/13 01:48:38;;;;;;;13.73;9.93;;;;;;;6.21;64.07;100700.09;4926782;29;20036;-73
2022/04/13 01:51:03;;;;;;;15.25;10.75;;;;;;;6.18;64.17;100702.66;4929979;29;20046;-73
2022/04/13 01:53:29;;;;;;;14.77;10.07;;;;;;;6.13;63.97;100704.31;4933289;29;20122;-73
2022/04/13 01:55:54;;;;;;;20.50;10.32;;;;;;;6.10;64.03;100707.81;4923411;29;20031;-73
2022/04/13 01:58:23;;;;;;;18.30;11.25;;;;;;;6.09;64.35;100707.78;4928933;29;20106;-73
2022/04/13 02:00:54;;;;;;;15.80;9.85;;;;;;;6.04;64.24;100698.97;4930060;29;20130;-73
2022/04/13 02:03:21;;;;;;;13.90;9.82;;;;;;;6.03;64.45;100694.59;4932080;29;20561;-73
2022/04/13 02:05:47;;;;;;;16.50;10.75;;;;;;;6.02;64.57;100701.53;4932937;29;20039;-73
2022/04/13 02:08:12;;;;;;;17.55;9.70;;;;;;;5.99;64.39;100690.16;4931301;29;20091;-73
2022/04/13 02:10:38;;;;;;;15.18;9.90;;;;;;;5.97;64.63;100697.97;4931203;29;20491;-73
2022/04/13 02:13:03;;;;;;;15.23;9.38;;;;;;;5.91;65.00;100688.25;4933635;29;20032;-73
2022/04/13 02:15:28;;;;;;;15.55;9.55;;;;;;;5.90;64.99;100693.50;4926864;29;20603;-73
2022/04/13 02:17:54;;;;;;;16.92;10.65;;;;;;;5.89;64.45;100690.00;4930815;29;20035;-73
2022/04/13 02:20:19;;;;;;;14.57;9.98;;;;;;;5.86;64.58;100689.94;4929554;29;20036;-73
2022/04/13 02:22:46;;;;;;;16.40;10.55;;;;;;;5.84;65.16;100686.44;4933804;29;20047;-73
2022/04/13 02:25:11;;;;;;;15.80;10.43;;;;;;;5.82;65.10;100687.25;4934805;29;20039;-73
2022/04/13 02:27:36;;;;;;;17.00;10.68;;;;;;;5.76;65.39;100690.63;4932781;29;20039;-73
2022/04/13 02:30:03;;;;;;;15.60;9.63;;;;;;;5.73;65.81;100693.22;4933131;29;20061;-73
2022/04/13 02:32:28;;;;;;;17.80;10.13;;;;;;;5.71;65.41;100690.59;4929803;29;20046;-73
2022/04/13 02:34:54;;;;;;;16.15;10.05;;;;;;;5.70;65.46;100680.94;4931454;29;20476;-73
2022/04/13 02:37:19;;;;;;;15.65;9.27;;;;;;;5.70;65.74;100683.56;4934436;29;20134;-73
2022/04/13 02:39:44;;;;;;;14.50;9.80;;;;;;;5.69;65.71;100684.44;4933044;29;20040;-73
2022/04/13 02:42:14;;;;;;;13.02;9.02;;;;;;;5.70;65.72;100683.56;4934060;29;20364;-73
2022/04/13 02:44:40;;;;;;;17.42;10.23;;;;;;;5.69;65.62;100688.78;4929849;29;20074;-73
2022/04/13 02:47:06;;;;;;;16.27;10.18;;;;;;;5.69;65.80;100688.78;4933633;29;20131;-73
2022/04/13 02:49:31;;;;;;;15.95;10.13;;;;;;;5.62;65.99;100687.81;4928029;29;20111;-73
2022/04/13 02:51:56;;;;;;;16.25;9.68;;;;;;;5.56;65.82;100687.72;4927903;29;20042;-73
2022/04/13 02:54:22;;;;;;;17.45;10.45;;;;;;;5.56;66.27;100684.22;4930833;29;20044;-73
2022/04/13 02:56:47;;;;;;;16.50;10.25;;;;;;;5.54;66.16;100686.78;4929883;29;20047;-73
2022/04/13 02:59:12;;;;;;;16.60;10.00;;;;;;;5.53;66.42;100690.28;4929830;29;20118;-73
2022/04/13 03:01:37;;;;;;;18.00;11.00;;;;;;;5.55;66.24;100685.94;4933776;29;20036;-73
2022/04/13 03:04:03;;;;;;;16.58;10.52;;;;;;;5.56;66.36;100685.09;4932907;29;20384;-73
2022/04/13 03:06:28;;;;;;;12.82;8.88;;;;;;;5.54;66.05;100686.78;4926399;29;20604;-73
2022/04/13 03:08:54;;;;;;;15.63;10.23;;;;;;;5.52;66.45;100679.78;4930615;29;20135;-73
2022/04/13 03:11:19;;;;;;;13.38;9.50;;;;;;;5.45;66.78;100673.56;4933733;29;20114;-73
2022/04/13 03:13:46;;;;;;;15.80;9.38;;;;;;;5.30;68.14;100678.53;4925080;29;20111;-73
2022/04/13 03:16:11;;;;;;;18.15;10.02;;;;;;;5.24;67.30;100680.19;4931273;29;20043;-74
2022/04/13 03:18:37;;;;;;;16.30;10.77;;;;;;;5.23;67.78;100667.94;4928821;29;20042;-73
2022/04/13 03:21:02;;;;;;;15.80;9.20;;;;;;;5.27;67.33;100668.91;4929556;29;20058;-73
2022/04/13 03:23:28;;;;;;;12.77;9.05;;;;;;;5.34;67.37;100669.88;4925163;29;20036;-74
2022/04/13 03:25:53;;;;;;;16.88;10.80;;;;;;;5.35;67.08;100664.66;4930729;29;20036;-74
2022/04/13 03:28:19;;;;;;;15.40;9.55;;;;;;;5.38;67.15;100666.47;4932023;29;20032;-73
2022/04/13 03:30:45;;;;;;;15.93;9.82;;;;;;;5.42;66.51;100670.88;4927954;29;20074;-73
2022/04/13 03:33:10;;;;;;;15.27;9.95;;;;;;;5.42;66.51;100676.09;4934112;29;20474;-73
2022/04/13 03:35:35;;;;;;;14.07;9.40;;;;;;;5.42;66.48;100670.88;4937312;29;20510;-73
2022/04/13 03:38:01;;;;;;;15.23;9.23;;;;;;;5.40;66.65;100673.47;4932646;29;20079;-73
2022/04/13 03:40:26;;;;;;;16.08;9.10;;;;;;;5.39;66.97;100676.06;4927746;29;20074;-74
2022/04/13 03:42:52;;;;;;;14.57;9.10;;;;;;;5.39;66.57;100671.69;4929631;29;20071;-73
2022/04/13 03:45:17;;;;;;;17.23;10.57;;;;;;;5.41;66.34;100669.13;4936234;29;20118;-73
2022/04/13 03:47:42;;;;;;;17.02;10.35;;;;;;;5.44;66.48;100684.88;4935133;29;20483;-73
2022/04/13 03:50:09;;;;;;;14.82;9.60;;;;;;;5.44;66.83;100685.75;4923867;29;20028;-73
2022/04/13 03:52:35;;;;;;;14.57;9.93;;;;;;;5.40;66.58;100683.06;4923019;29;20098;-73
2022/04/13 03:55:04;;;;;;;17.42;9.43;;;;;;;5.38;65.93;100687.41;4925322;29;20039;-74
2022/04/13 03:57:29;;;;;;;14.18;9.00;;;;;;;5.30;66.92;100676.78;4927523;29;20043;-74
2022/04/13 03:59:55;;;;;;;17.10;9.80;;;;;;;5.13;67.67;100679.09;4925331;29;20020;-74
2022/04/13 04:02:21;;;;;;;14.43;9.27;;;;;;;5.05;67.83;100678.06;4924699;29;20629;-74
2022/04/13 04:04:46;;;;;;;16.77;9.75;;;;;;;5.10;68.00;100681.66;4930433;29;20046;-74
2022/04/13 04:07:11;;;;;;;14.88;9.13;;;;;;;5.13;67.61;100679.09;4933717;29;20499;-74
2022/04/13 04:09:37;;;;;;;13.15;9.05;;;;;;;5.17;67.77;100680.03;4932485;29;20454;-76
2022/04/13 04:12:03;;;;;;;15.00;9.55;;;;;;;5.17;67.78;100678.31;4933372;29;20068;-74
2022/04/13 04:14:28;;;;;;;15.52;8.93;;;;;;;5.18;67.96;100681.78;4936354;29;20035;-74
2022/04/13 04:16:53;;;;;;;15.70;8.73;;;;;;;5.16;67.46;100684.41;4932101;29;20126;-75
2022/04/13 04:19:19;;;;;;;15.20;8.90;;;;;;;5.17;67.55;100680.91;4930559;29;20487;-75
2022/04/13 04:21:44;;;;;;;16.05;10.23;;;;;;;5.08;68.18;100685.97;4936065;29;20062;-75
2022/04/13 04:24:09;;;;;;;14.25;9.05;;;;;;;5.02;68.49;100688.47;4932159;29;20032;-75
2022/04/13 04:26:35;;;;;;;17.52;10.07;;;;;;;5.03;67.89;100685.00;4927858;29;20044;-75
2022/04/13 04:29:00;;;;;;;21.83;13.05;;;;;;;5.04;67.74;100685.03;4923859;29;20038;-75
2022/04/13 04:34:09;;;;;;;19.67;11.43;;;;;;;5.16;67.25;100678.25;4927535;29;20039;-75
2022/04/13 04:36:34;;;;;;;15.70;9.95;;;;;;;5.19;67.22;100684.44;4925566;29;20047;-75
2022/04/13 04:39:00;;;;;;;17.48;10.15;;;;;;;5.22;66.90;100687.13;4925897;29;20036;-74
2022/04/13 04:41:25;;;;;;;17.30;10.13;;;;;;;5.26;66.81;100688.03;4921021;29;20083;-75
2022/04/13 04:43:50;;;;;;;15.25;9.00;;;;;;;5.32;66.74;100687.28;4928738;29;20078;-74
2022/04/13 04:46:16;;;;;;;12.55;8.55;;;;;;;5.37;67.30;100688.22;4934162;29;20070;-75
2022/04/13 04:48:42;;;;;;;15.70;9.75;;;;;;;5.39;67.41;100689.16;4928984;29;20136;-75
2022/04/13 04:51:08;;;;;;;14.07;9.05;;;;;;;5.38;67.30;100692.63;4936128;29;20043;-75
2022/04/13 04:53:34;;;;;;;17.13;9.60;;;;;;;5.38;67.42;100700.47;4931141;29;20487;-74
2022/04/13 04:55:59;;;;;;;16.25;9.85;;;;;;;5.38;67.65;100696.13;4935603;29;20044;-74
2022/04/13 04:58:25;;;;;;;15.45;9.77;;;;;;;5.47;67.36;100705.88;4934065;29;20051;-75
2022/04/13 05:00:50;;;;;;;16.52;10.63;;;;;;;5.57;67.32;100702.56;4942751;29;20047;-75
2022/04/13 05:03:16;;;;;;;15.85;9.63;;;;;;;5.68;67.15;100700.97;4936034;29;20040;-75
2022/04/13 05:05:41;;;;;;;16.88;10.57;;;;;;;5.78;66.66;100701.16;4934217;29;20039;-75
2022/04/13 05:08:07;;;;;;;14.55;9.57;;;;;;;5.87;66.68;100701.31;4935471;29;20065;-75
2022/04/13 05:10:33;;;;;;;18.63;10.15;;;;;;;5.97;66.82;100703.22;4926704;29;20102;-74
2022/04/13 05:12:59;;;;;;;14.82;9.25;;;;;;;6.08;66.56;100708.66;4931565;29;20118;-74
2022/04/13 05:15:24;;;;;;;18.08;9.68;;;;;;;6.17;66.38;100705.28;4933780;29;20179;-74
2022/04/13 05:17:50;;;;;;;15.35;10.00;;;;;;;6.26;66.47;100700.16;4931768;29;20832;-75
2022/04/13 05:20:15;;;;;;;15.63;9.40;;;;;;;6.37;65.76;100698.56;4933841;29;20036;-74
2022/04/13 05:22:41;;;;;;;15.30;10.23;;;;;;;6.48;66.02;100707.47;4934170;29;20055;-74
2022/04/13 05:25:11;;;;;;;18.33;10.85;;;;;;;6.59;65.87;100700.59;4934179;29;20572;-74
2022/04/13 05:27:37;;;;;;;15.90;9.93;;;;;;;6.73;65.64;100707.75;4934315;29;20063;-74
2022/04/13 05:30:04;;;;;;;14.40;9.27;;;;;;;6.85;65.59;100713.16;4941566;29;20035;-74
2022/04/13 05:32:30;;;;;;;17.40;10.45;;;;;;;6.97;65.45;100713.31;4934004;29;20044;-74
2022/04/13 05:35:00;;;;;;;14.73;9.57;;;;;;;7.10;64.96;100702.94;4942720;29;20107;-74
2022/04/13 05:37:26;;;;;;;15.57;9.45;;;;;;;7.21;64.37;100701.31;4946569;29;20063;-75
2022/04/13 05:39:51;;;;;;;13.07;9.45;;;;;;;7.35;64.37;100707.56;4933112;29;20126;-74
2022/04/13 05:42:21;;;;;;;15.07;10.07;;;;;;;7.52;63.63;100706.84;4934590;29;20612;-75
2022/04/13 05:44:46;;;;;;;16.33;9.82;;;;;;;7.64;64.08;100701.72;4934442;29;20497;-74
2022/04/13 05:47:11;;;;;;;18.67;9.20;;;;;;;7.79;63.52;100696.59;4932324;29;20047;-75
2022/04/13 05:49:37;;;;;;;17.45;9.90;;;;;;;7.95;63.09;100707.22;4931804;29;20032;-75
2022/04/13 05:52:02;;;;;;;16.05;10.00;;;;;;;8.08;63.01;100716.94;4927112;29;20046;-75
2022/04/13 05:54:27;;;;;;;14.30;10.15;;;;;;;8.21;62.28;100721.41;4935100;29;20035;-75
2022/04/13 05:56:53;;;;;;;16.85;10.50;;;;;;;8.34;61.95;100725.00;4935358;29;20101;-75
2022/04/13 05:59:18;;;;;;;15.07;10.65;;;;;;;8.47;61.37;100718.97;4934081;29;20121;-75
2022/04/13 06:01:43;;;;;;;17.48;11.23;;;;;;;8.59;61.38;100727.78;4934698;29;20455;-75
2022/04/13 06:04:09;;;;;;;16.75;10.32;;;;;;;8.72;60.72;100725.25;4930565;29;20703;-75
2022/04/13 06:06:35;;;;;;;15.98;10.10;;;;;;;8.83;60.59;100733.19;4930272;29;20035;-74
2022/04/13 06:09:00;;;;;;;15.43;9.98;;;;;;;8.93;60.83;100734.09;4928569;29;20035;-75
2022/04/13 06:11:25;;;;;;;15.07;10.40;;;;;;;9.03;60.61;100727.97;4924384;29;20040;-74
2022/04/13 06:13:51;;;;;;;14.88;10.55;;;;;;;9.14;60.23;100734.19;4928821;29;20122;-75
2022/04/13 06:16:16;;;;;;;17.67;12.85;;;;;;;9.24;60.11;100735.06;4934990;29;20040;-76
2022/04/13 06:18:41;;;;;;;15.85;10.13;;;;;;;9.31;60.21;100731.59;4932260;29;20040;-76
2022/04/13 06:21:08;;;;;;;18.40;12.00;;;;;;;9.40;59.98;100730.72;4932228;29;20044;-76
2022/04/13 06:23:33;;;;;;;14.98;10.20;;;;;;;9.52;59.66;100735.13;4934473;29;20043;-76
2022/04/13 06:25:58;;;;;;;15.38;11.50;;;;;;;9.62;59.37;100727.25;4933931;29;20071;-76
2022/04/13 06:28:24;;;;;;;18.60;12.93;;;;;;;9.75;58.87;100730.78;4930727;29;20039;-76
2022/04/13 06:30:49;;;;;;;17.80;13.73;;;;;;;9.87;58.51;100732.50;4941814;29;20048;-76
2022/04/13 06:33:15;;;;;;;18.00;11.68;;;;;;;9.96;58.39;100727.25;4928225;29;20042;-76
2022/04/13 06:35:40;;;;;;;16.08;11.65;;;;;;;10.05;57.82;100731.63;4927592;29;20040;-77
2022/04/13 06:38:05;;;;;;;18.15;13.05;;;;;;;10.11;57.34;100734.25;4924335;29;20050;-76
2022/04/13 06:40:31;;;;;;;19.00;12.73;;;;;;;10.18;57.11;100727.22;4928065;29;20042;-76
2022/04/13 06:42:56;;;;;;;15.48;11.15;;;;;;;10.20;56.19;100736.91;4933793;29;20051;-76
2022/04/13 06:45:22;;;;;;;15.60;10.85;;;;;;;10.29;56.45;100733.38;4932657;29;20083;-76
2022/04/13 06:47:48;;;;;;;18.60;10.90;;;;;;;10.38;55.68;100738.66;4938372;29;20134;-76
2022/04/13 06:50:14;;;;;;;16.15;9.43;;;;;;;10.46;56.02;100744.78;4929867;29;20043;-76
2022/04/13 06:52:40;;;;;;;25.33;14.20;;;;;;;10.60;55.73;100746.50;4930507;29;20023;-76
2022/04/13 06:55:09;;;;;;;25.80;16.38;;;;;;;10.77;55.58;100741.16;4926200;29;20459;-76
2022/04/13 06:57:37;;;;;;;17.35;11.52;;;;;;;10.89;55.25;100744.66;4932809;29;20619;-76
2022/04/13 07:00:04;;;;;;;20.92;14.70;;;;;;;11.01;55.39;100745.50;4932271;29;20118;-76
2022/04/13 07:02:29;;;;;;;21.20;14.25;;;;;;;11.12;54.62;100743.69;4933433;29;20047;-76
2022/04/13 07:04:54;;;;;;;23.60;17.52;;;;;;;11.23;54.67;100743.63;4930656;29;20023;-76
2022/04/13 07:07:20;;;;;;;17.83;13.18;;;;;;;11.36;54.16;100740.88;4932682;29;20066;-77
2022/04/13 07:09:45;;;;;;;19.95;13.50;;;;;;;11.47;54.43;100739.94;4933584;29;20144;-76
2022/04/13 07:12:11;;;;;;;18.98;14.35;;;;;;;11.57;54.22;100747.81;4933421;29;20039;-76
2022/04/13 07:14:36;;;;;;;16.08;10.77;;;;;;;11.64;53.89;100740.72;4933647;29;20106;-76
2022/04/13 07:17:01;;;;;;;15.30;10.20;;;;;;;11.67;53.94;100745.09;4933646;29;20028;-76
2022/04/13 07:19:27;;;;;;;15.38;11.20;;;;;;;11.73;53.36;100751.22;4930006;29;20106;-76
2022/04/13 07:21:52;;;;;;;23.38;15.75;;;;;;;11.88;53.67;100747.63;4924870;29;20040;-76
2022/04/13 07:24:18;;;;;;;24.75;16.85;;;;;;;12.03;53.39;100750.13;4933515;29;20409;-76
2022/04/13 07:26:43;;;;;;;29.42;17.58;;;;;;;12.19;54.34;100747.34;4933432;29;20082;-76
2022/04/13 07:29:08;;;;;;;32.75;19.35;;;;;;;12.36;54.07;100752.47;4932757;29;20495;-76
2022/04/13 07:31:33;;;;;;;31.95;19.65;;;;;;;12.52;54.16;100751.41;4931128;29;20530;-77
2022/04/13 07:33:59;;;;;;;29.25;18.92;;;;;;;12.67;53.56;100745.97;4931423;29;20499;-76
2022/04/13 07:36:24;;;;;;;21.92;16.17;;;;;;;12.84;52.92;100747.56;4927424;29;20043;-76
2022/04/13 07:38:53;;;;;;;14.98;9.80;;;;;;;12.94;52.43;100749.16;4930390;29;20091;-76
2022/04/13 07:41:18;;;;;;;13.35;10.35;;;;;;;13.03;52.53;100746.41;4932289;29;20114;-76
2022/04/13 07:43:47;;;;;;;15.20;10.85;;;;;;;13.22;52.57;100746.19;4933230;29;20122;-76
2022/04/13 07:46:12;;;;;;;14.23;9.55;;;;;;;13.36;51.53;100754.84;4933341;29;20038;-76
2022/04/13 07:48:37;;;;;;;16.67;10.82;;;;;;;13.51;51.32;100749.31;4940162;29;20106;-76
2022/04/13 07:51:03;;;;;;;18.20;11.70;;;;;;;13.69;51.42;100752.59;4933214;29;20042;-76
2022/04/13 07:53:28;;;;;;;15.40;10.73;;;;;;;13.82;50.82;100755.03;4933558;29;20047;-76
2022/04/13 07:55:53;;;;;;;15.05;9.52;;;;;;;13.98;49.42;100754.78;4933248;29;20042;-76
2022/04/13 07:58:19;;;;;;;15.27;10.48;;;;;;;14.13;49.00;100753.66;4933259;29;20643;-76
2022/04/13 08:00:44;;;;;;;15.57;9.63;;;;;;;14.31;48.28;100758.66;4931822;29;20044;-76
2022/04/13 08:03:09;;;;;;;17.88;11.93;;;;;;;14.48;48.29;100756.53;4927760;29;20120;-76
2022/04/13 08:05:35;;;;;;;23.15;15.38;;;;;;;14.65;48.19;100750.09;4929134;29;20043;-76
2022/04/13 08:08:00;;;;;;;22.35;15.13;;;;;;;14.79;47.76;100748.00;4931953;29;20044;-76
2022/04/13 08:10:26;;;;;;;23.05;15.77;;;;;;;14.96;47.33;100752.09;4934346;29;20466;-76
2022/04/13 08:12:51;;;;;;;20.52;13.73;;;;;;;15.09;47.08;100753.59;4932421;29;20107;-76
2022/04/13 08:15:17;;;;;;;21.55;13.35;;;;;;;15.25;46.92;100755.03;4935798;29;20047;-76
2022/04/13 08:17:43;;;;;;;19.42;12.52;;;;;;;15.42;46.25;100753.78;4933063;29;20052;-76
2022/04/13 08:20:11;;;;;;;19.05;13.95;;;;;;;15.56;45.92;100751.66;4933727;29;20036;-76
2022/04/13 08:22:37;;;;;;;20.73;11.38;;;;;;;15.65;45.15;100753.25;4926801;29;20082;-76
2022/04/13 08:25:03;;;;;;;21.08;13.38;;;;;;;15.80;44.39;100752.03;4934050;29;20063;-76
2022/04/13 08:27:28;;;;;;;23.40;15.82;;;;;;;15.96;44.52;100754.28;4943996;29;20036;-76
2022/04/13 08:29:53;;;;;;;22.75;15.48;;;;;;;16.13;43.95;100751.19;4934937;29;20035;-76
2022/04/13 08:32:19;;;;;;;16.55;10.70;;;;;;;16.24;42.15;100748.25;4936248;29;20051;-76
2022/04/13 08:34:48;;;;;;;15.77;10.50;;;;;;;16.26;40.27;100751.75;4932725;29;20168;-76
2022/04/13 08:37:14;;;;;;;15.98;10.23;;;;;;;16.45;41.32;100752.13;4932701;29;20036;-76
2022/04/13 08:39:40;;;;;;;21.33;12.70;;;;;;;16.64;41.65;100758.72;4936241;29;20036;-76
2022/04/13 08:42:13;;;;;;;16.90;10.18;;;;;;;16.85;39.69;100749.28;4936017;29;20483;-76
2022/04/13 08:44:50;;;;;;;16.85;12.50;;;;;;;17.05;39.92;100742.50;4936360;29;20042;-76
2022/04/13 08:47:25;;;;;;;19.48;12.15;;;;;;;17.27;39.64;100748.94;4942985;29;20075;-76
2022/04/13 08:49:52;;;;;;;18.13;11.27;;;;;;;17.49;40.02;100740.28;4929881;29;20406;-76
2022/04/13 08:52:22;;;;;;;16.45;11.20;;;;;;;17.68;39.86;100748.56;4929407;29;20036;-76
2022/04/13 08:55:08;;;;;;;15.25;9.90;;;;;;;17.80;38.04;100740.19;4934888;29;20042;-76
2022/04/13 08:57:36;;;;;;;18.15;11.55;;;;;;;17.93;38.93;100738.88;4935875;29;20044;-76
2022/04/13 09:00:07;;;;;;;25.10;16.15;;;;;;;18.12;38.79;100741.78;4924848;29;20416;-76
2022/04/13 09:02:47;;;;;;;17.23;12.13;;;;;;;18.24;37.60;100728.97;4935725;29;20418;-76
2022/04/13 09:05:31;;;;;;;18.35;12.02;;;;;;;18.34;37.49;100733.91;4933819;29;20059;-77
2022/04/13 09:08:23;;;;;;;18.67;11.52;;;;;;;18.38;36.61;100740.88;4929568;29;20412;-76
2022/04/13 09:10:51;;;;;;;17.60;11.80;;;;;;;18.60;37.97;100734.78;4933141;29;20402;-76
2022/04/13 09:13:19;;;;;;;15.18;10.88;;;;;;;18.77;37.56;100742.22;4934287;29;20032;-76
2022/04/13 09:15:45;;;;;;;20.52;14.27;;;;;;;18.93;37.36;100732.69;4935535;29;20551;-76
2022/04/13 09:18:11;;;;;;;17.23;11.60;;;;;;;19.11;37.03;100735.63;4932151;29;20035;-76
2022/04/13 09:20:38;;;;;;;16.85;12.23;;;;;;;19.21;36.61;100732.53;4932046;29;20047;-76
2022/04/13 09:23:04;;;;;;;20.15;13.88;;;;;;;19.19;36.43;100731.72;4933441;29;20140;-77
2022/04/13 09:25:34;;;;;;;12.85;8.80;;;;;;;19.32;34.95;100725.88;4935397;29;20280;-76
2022/04/13 09:28:01;;;;;;;17.42;10.93;;;;;;;19.37;35.65;100734.59;4928868;29;20055;-76
2022/04/13 09:30:28;;;;;;;17.63;12.95;;;;;;;19.50;35.82;100722.47;4935357;29;20047;-76
2022/04/13 09:32:54;;;;;;;18.05;12.75;;;;;;;19.67;35.76;100730.72;4935263;29;20048;-76
2022/04/13 09:35:20;;;;;;;15.70;10.45;;;;;;;19.81;34.78;100729.31;4933949;29;20043;-76
2022/04/13 09:37:46;;;;;;;17.27;11.07;;;;;;;19.75;34.46;100733.06;4935492;29;20399;-76
2022/04/13 09:40:26;;;;;;;15.05;10.23;;;;;;;19.78;34.43;100732.97;4935147;29;20043;-76
2022/04/13 09:42:51;;;;;;;18.15;9.55;;;;;;;19.87;34.00;100729.03;4929793;29;20039;-76
2022/04/13 09:45:17;;;;;;;12.15;7.95;;;;;;;19.86;33.61;100730.00;4935335;29;20114;-76
2022/04/13 09:47:45;;;;;;;12.35;7.97;;;;;;;19.92;33.77;100732.41;4931462;29;20043;-76
2022/04/13 09:50:23;;;;;;;13.20;8.98;;;;;;;20.06;32.99;100726.44;4931825;29;20039;-76
2022/04/13 09:52:54;;;;;;;12.90;8.30;;;;;;;20.08;32.74;100725.47;4934910;29;20142;-76
2022/04/13 09:55:21;;;;;;;14.15;9.30;;;;;;;20.01;33.65;100732.00;4945874;29;20502;-76
2022/04/13 09:57:47;;;;;;;15.45;9.40;;;;;;;20.21;33.17;100727.63;4934734;29;20036;-76
2022/04/13 10:00:14;;;;;;;13.50;8.85;;;;;;;20.21;33.25;100730.28;4932808;29;20037;-77
2022/04/13 10:02:41;;;;;;;16.20;10.15;;;;;;;20.41;33.80;100722.28;4934195;29;20130;-77
2022/04/13 10:05:10;;;;;;;13.00;8.82;;;;;;;20.62;33.14;100725.84;4932442;29;20615;-77
2022/04/13 10:07:36;;;;;;;13.82;9.15;;;;;;;20.83;33.18;100718.63;4940225;29;20126;-76
2022/04/13 10:10:06;;;;;;;12.90;9.43;;;;;;;21.05;32.66;100717.63;4931329;29;20047;-77
2022/04/13 10:12:47;;;;;;;12.23;8.20;;;;;;;21.04;31.10;100718.56;4930371;29;20419;-77
2022/04/13 10:15:13;;;;;;;14.23;8.70;;;;;;;20.97;32.15;100716.16;4928723;29;20055;-76
2022/04/13 10:17:39;;;;;;;15.10;9.25;;;;;;;21.13;32.31;100710.09;4924157;29;20039;-76
2022/04/13 10:20:04;;;;;;;15.82;9.50;;;;;;;21.32;31.64;100715.44;4913518;29;20854;-76
2022/04/13 10:22:30;;;;;;;14.85;9.35;;;;;;;21.32;31.12;100713.63;4923094;29;20514;-76
2022/04/13 10:24:55;;;;;;;12.32;8.18;;;;;;;21.35;31.34;100710.81;4922024;29;20511;-77
2022/04/13 10:27:24;;;;;;;15.52;10.20;;;;;;;21.56;31.46;100702.69;4923586;29;20046;-76
2022/04/13 10:29:50;;;;;;;13.38;8.93;;;;;;;21.68;31.67;100707.44;4926339;29;20074;-77
2022/04/13 10:32:17;;;;;;;14.68;9.50;;;;;;;21.93;31.81;100716.97;4932917;29;20035;-76
2022/04/13 10:34:48;;;;;;;13.43;9.70;;;;;;;22.17;31.76;100707.66;4933826;29;20058;-76
2022/04/13 10:37:17;;;;;;;14.63;8.77;;;;;;;22.27;30.39;100710.78;4933382;29;20054;-76
2022/04/13 10:39:45;;;;;;;11.82;8.07;;;;;;;22.39;30.25;100703.88;4934436;29;20067;-77
2022/04/13 10:42:11;;;;;;;13.70;8.82;;;;;;;22.65;30.74;100706.06;4940606;29;20138;-77
2022/04/13 10:44:49;;;;;;;14.82;9.50;;;;;;;22.84;29.78;100705.06;4934226;29;20039;-77
2022/04/13 10:47:18;;;;;;;13.45;9.50;;;;;;;23.06;30.08;100710.19;4933918;29;20137;-77
2022/04/13 10:49:56;;;;;;;12.80;9.48;;;;;;;22.95;28.78;100697.25;4930399;29;20038;-77
2022/04/13 10:52:39;;;;;;;13.55;9.55;;;;;;;23.12;29.04;100699.94;4932289;29;20039;-77
2022/04/13 10:55:08;;;;;;;13.73;9.65;;;;;;;23.40;29.72;100687.63;4944746;29;20138;-77
2022/04/13 10:57:40;;;;;;;13.38;8.60;;;;;;;23.69;29.09;100690.47;4934376;29;20044;-77
2022/04/13 11:00:10;;;;;;;15.90;8.50;;;;;;;23.95;28.93;100689.81;4930782;29;20059;-77
2022/04/13 11:02:52;;;;;;;12.15;9.02;;;;;;;23.97;27.22;100687.91;4931805;29;20051;-77
2022/04/13 11:05:17;;;;;;;10.80;7.85;;;;;;;24.05;27.81;100691.00;4931349;29;20134;-77
2022/04/13 11:07:43;;;;;;;13.85;8.07;;;;;;;24.10;27.34;100689.84;4924806;29;20174;-77
2022/04/13 11:10:16;;;;;;;12.50;7.82;;;;;;;24.06;26.88;100692.72;4924435;29;20127;-77
2022/04/13 11:12:42;;;;;;;11.77;8.10;;;;;;;24.06;27.68;100690.03;4925972;29;20594;-77
2022/04/13 11:15:08;;;;;;;11.07;7.60;;;;;;;24.25;27.47;100692.47;4926441;29;20055;-77
2022/04/13 11:17:40;;;;;;;12.73;8.63;;;;;;;24.41;27.03;100687.00;4922811;29;20440;-77